createdAt,value
2024-01-15T00:02:43.861Z,0.20
2024-01-15T00:05:31.152Z,0.20
2024-01-15T00:08:18.365Z,0.20
2024-01-15T00:11:05.698Z,0.20
2024-01-15T00:13:53.673Z,0.20
2024-01-15T00:16:41.993Z,0.20
2024-01-15T00:19:29.298Z,0.20
2024-01-15T00:22:16.696Z,0.20
2024-01-15T00:25:04.721Z,0.20
2024-01-15T00:27:52.078Z,0.20
2024-01-15T00:30:39.548Z,0.10
2024-01-15T00:33:27.025Z,0.20
2024-01-15T00:36:15.833Z,0.20
2024-01-15T00:39:03.321Z,0.20
2024-01-15T00:41:50.605Z,0.20
2024-01-15T00:44:38.254Z,0.20
2024-01-15T00:47:25.623Z,0.20
2024-01-15T00:50:13.069Z,0.20
2024-01-15T00:53:00.496Z,0.30
2024-01-15T00:55:47.754Z,0.30
2024-01-15T00:58:35.085Z,0.20
2024-01-15T01:01:22.383Z,0.20
2024-01-15T01:04:11.008Z,0.10
2024-01-15T01:06:58.407Z,0.10
2024-01-15T01:09:46.908Z,0.00
2024-01-15T01:12:34.306Z,0.00
2024-01-15T01:15:22.649Z,0.10
2024-01-15T01:18:10.182Z,0.10
2024-01-15T01:20:57.580Z,0.20
2024-01-15T01:23:44.872Z,0.20
2024-01-15T01:26:32.396Z,0.30
2024-01-15T01:29:19.706Z,0.40
2024-01-15T01:32:07.194Z,0.40
2024-01-15T01:34:54.577Z,0.50
2024-01-15T01:37:42.885Z,0.50
2024-01-15T01:40:30.238Z,0.60
2024-01-15T01:43:17.479Z,0.60
2024-01-15T01:46:06.102Z,0.70
2024-01-15T01:48:53.944Z,0.70
2024-01-15T01:51:41.518Z,0.70
2024-01-15T01:54:32.463Z,0.60
2024-01-15T01:57:20.658Z,0.60
2024-01-15T02:00:09.158Z,0.60
2024-01-15T02:02:57.945Z,0.60
2024-01-15T02:05:47.759Z,0.50
2024-01-15T02:08:36.082Z,0.50
2024-01-15T02:11:23.434Z,0.50
2024-01-15T02:14:11.772Z,0.50
2024-01-15T02:16:59.086Z,0.50
2024-01-15T02:19:46.505Z,0.50
2024-01-15T02:22:33.906Z,0.60
2024-01-15T02:25:21.951Z,0.60
2024-01-15T02:28:11.225Z,0.60
2024-01-15T02:30:58.554Z,0.60
2024-01-15T02:33:47.565Z,0.60
2024-01-15T02:36:35.018Z,0.50
2024-01-15T02:39:22.404Z,0.50
2024-01-15T02:42:09.796Z,0.40
2024-01-15T02:44:57.056Z,0.50
2024-01-15T02:47:44.385Z,0.50
2024-01-15T02:50:31.705Z,0.40
2024-01-15T02:53:19.013Z,0.40
2024-01-15T02:56:08.428Z,0.30
2024-01-15T02:58:55.725Z,0.30
2024-01-15T03:01:42.985Z,0.30
2024-01-15T03:04:30.416Z,0.30
2024-01-15T03:07:17.983Z,0.30
2024-01-15T03:10:06.929Z,0.30
2024-01-15T03:12:54.198Z,0.40
2024-01-15T03:15:41.597Z,0.40
2024-01-15T03:18:28.988Z,0.50
2024-01-15T03:21:16.388Z,0.50
2024-01-15T03:24:03.879Z,0.40
2024-01-15T03:26:51.218Z,0.40
2024-01-15T03:29:38.560Z,0.40
2024-01-15T03:32:25.900Z,0.40
2024-01-15T03:35:13.196Z,0.30
2024-01-15T03:38:00.559Z,0.30
2024-01-15T03:40:48.126Z,0.20
2024-01-15T03:43:35.488Z,0.20
2024-01-15T03:46:22.767Z,0.10
2024-01-15T03:49:10.132Z,0.00
2024-01-15T03:51:57.980Z,0.00
2024-01-15T03:54:45.282Z,-0.10
2024-01-15T03:57:32.713Z,-0.10
2024-01-15T04:00:20.325Z,-0.10
2024-01-15T04:03:07.860Z,-0.10
2024-01-15T04:05:55.365Z,-0.20
2024-01-15T04:08:42.613Z,-0.10
2024-01-15T04:11:30.231Z,-0.10
2024-01-15T04:14:17.523Z,-0.20
2024-01-15T04:17:05.033Z,-0.10
2024-01-15T04:19:52.360Z,-0.10
2024-01-15T04:22:39.748Z,-0.10
2024-01-15T04:25:27.021Z,-0.10
2024-01-15T04:28:14.451Z,0.00
2024-01-15T04:31:01.857Z,0.00
2024-01-15T04:33:49.287Z,0.10
2024-01-15T04:36:41.590Z,0.20
2024-01-15T04:39:29.056Z,0.30
2024-01-15T04:42:16.395Z,0.40
2024-01-15T04:45:04.708Z,0.50
2024-01-15T04:47:52.036Z,0.60
2024-01-15T04:50:39.353Z,0.60
2024-01-15T04:53:26.642Z,0.70
2024-01-15T04:56:13.969Z,0.80
2024-01-15T04:59:01.270Z,0.90
2024-01-15T05:01:50.134Z,0.90
2024-01-15T05:04:37.515Z,0.90
2024-01-15T05:07:24.806Z,1.00
2024-01-15T05:10:12.026Z,1.00
2024-01-15T05:12:59.581Z,1.10
2024-01-15T05:15:46.901Z,1.10
2024-01-15T05:18:34.371Z,1.10
2024-01-15T05:21:21.825Z,1.10
2024-01-15T05:24:09.576Z,1.10
2024-01-15T05:26:56.855Z,1.10
2024-01-15T05:29:44.122Z,1.20
2024-01-15T05:32:31.403Z,1.20
2024-01-15T05:35:18.770Z,1.20
2024-01-15T05:38:06.060Z,1.20
2024-01-15T05:40:53.487Z,1.20
2024-01-15T05:43:40.932Z,1.10
2024-01-15T05:46:28.258Z,1.10
2024-01-15T05:49:15.772Z,1.10
2024-01-15T05:52:03.225Z,1.10
2024-01-15T05:54:51.156Z,1.10
2024-01-15T05:57:38.728Z,1.10
2024-01-15T06:00:26.112Z,1.10
2024-01-15T06:03:13.499Z,1.00
2024-01-15T06:06:00.873Z,1.00
2024-01-15T06:08:48.267Z,1.00
2024-01-15T06:11:35.757Z,1.00
2024-01-15T06:14:23.038Z,1.00
2024-01-15T06:17:10.368Z,1.00
2024-01-15T06:19:58.532Z,1.00
2024-01-15T06:22:46.096Z,1.00
2024-01-15T06:25:33.488Z,1.00
2024-01-15T06:28:20.921Z,1.00
2024-01-15T06:31:11.281Z,1.00
2024-01-15T06:34:00.301Z,1.00
2024-01-15T06:36:48.011Z,1.00
2024-01-15T06:39:35.437Z,0.90
2024-01-15T06:42:23.373Z,0.90
2024-01-15T06:45:10.961Z,0.90
2024-01-15T06:48:03.762Z,0.90
2024-01-15T06:50:51.169Z,0.90
2024-01-15T06:53:39.021Z,0.90
2024-01-15T06:56:26.313Z,1.00
2024-01-15T06:59:16.057Z,1.00
2024-01-15T07:02:05.104Z,1.10
2024-01-15T07:04:52.488Z,1.10
2024-01-15T07:07:39.974Z,1.10
2024-01-15T07:10:27.525Z,1.20
2024-01-15T07:13:16.725Z,1.30
2024-01-15T07:16:04.306Z,1.30
2024-01-15T07:18:51.836Z,1.40
2024-01-15T07:21:41.352Z,1.40
2024-01-15T07:24:28.668Z,1.50
2024-01-15T07:27:16.069Z,1.50
2024-01-15T07:30:06.504Z,1.60
2024-01-15T07:32:54.351Z,1.70
2024-01-15T07:35:44.848Z,1.70
2024-01-15T07:38:32.346Z,1.70
2024-01-15T07:41:19.818Z,1.80
2024-01-15T07:44:07.413Z,1.80
2024-01-15T07:46:54.721Z,1.80
2024-01-15T07:49:42.145Z,1.80
2024-01-15T07:52:29.603Z,1.80
2024-01-15T07:55:16.956Z,1.70
2024-01-15T07:58:11.878Z,1.80
2024-01-15T08:01:03.778Z,1.70
2024-01-15T08:03:51.404Z,1.70
2024-01-15T08:06:38.841Z,1.70
2024-01-15T08:09:26.295Z,1.70
2024-01-15T08:12:14.608Z,1.70
2024-01-15T08:15:11.384Z,1.70
2024-01-15T08:18:01.246Z,1.70
2024-01-15T08:20:49.658Z,1.70
2024-01-15T08:23:37.022Z,1.80
2024-01-15T08:26:24.271Z,1.80
2024-01-15T08:29:11.812Z,1.70
2024-01-15T08:31:59.751Z,1.80
2024-01-15T08:34:48.872Z,1.80
2024-01-15T08:37:36.324Z,1.90
2024-01-15T08:40:23.564Z,1.90
2024-01-15T08:43:10.814Z,1.90
2024-01-15T08:45:58.869Z,1.90
2024-01-15T08:48:47.012Z,2.00
2024-01-15T08:51:34.801Z,2.00
2024-01-15T08:54:22.139Z,2.10
2024-01-15T08:57:09.487Z,2.10
2024-01-15T08:59:56.915Z,2.20
2024-01-15T09:02:48.331Z,2.20
2024-01-15T09:05:36.838Z,2.30
2024-01-15T09:08:24.232Z,2.30
2024-01-15T09:11:11.623Z,2.40
2024-01-15T09:13:59.001Z,2.50
2024-01-15T09:16:46.620Z,2.50
2024-01-15T09:19:34.248Z,2.60
2024-01-15T09:22:21.896Z,2.60
2024-01-15T09:25:13.176Z,2.80
2024-01-15T09:28:00.640Z,2.90
2024-01-15T09:30:48.634Z,3.00
2024-01-15T09:33:36.589Z,3.10
2024-01-15T09:36:24.190Z,3.20
2024-01-15T09:39:12.377Z,3.20
2024-01-15T09:42:00.675Z,3.20
2024-01-15T09:44:48.220Z,3.20
2024-01-15T09:47:35.678Z,3.20
2024-01-15T09:50:23.120Z,3.20
2024-01-15T09:53:11.117Z,3.20
2024-01-15T09:55:59.438Z,3.20
2024-01-15T09:58:47.685Z,3.30
2024-01-15T10:01:37.952Z,3.40
2024-01-15T10:04:26.925Z,3.50
2024-01-15T10:07:20.819Z,3.60
2024-01-15T10:10:11.155Z,3.80
2024-01-15T10:12:59.612Z,3.90
2024-01-15T10:15:48.427Z,4.10
2024-01-15T10:18:37.208Z,4.20
2024-01-15T10:21:27.897Z,4.20
2024-01-15T10:24:15.330Z,4.30
2024-01-15T10:27:10.389Z,4.40
2024-01-15T10:30:02.096Z,4.50
2024-01-15T10:33:07.714Z,4.60
2024-01-15T10:35:59.295Z,4.70
2024-01-15T10:38:47.717Z,4.90
2024-01-15T10:41:35.101Z,5.00
2024-01-15T10:44:22.640Z,5.00
2024-01-15T10:47:10.020Z,5.10
2024-01-15T10:49:57.537Z,5.20
2024-01-15T10:52:45.666Z,5.20
2024-01-15T10:55:34.756Z,5.30
2024-01-15T10:58:24.501Z,5.30
2024-01-15T11:01:13.926Z,5.40
2024-01-15T11:04:01.481Z,5.30
2024-01-15T11:06:53.633Z,5.40
2024-01-15T11:09:41.143Z,5.50
2024-01-15T11:12:29.355Z,5.60
2024-01-15T11:15:21.904Z,5.70
2024-01-15T11:18:12.930Z,5.80
2024-01-15T11:21:18.594Z,5.90
2024-01-15T11:24:08.067Z,5.80
2024-01-15T11:26:58.070Z,5.80
2024-01-15T11:29:47.274Z,5.90
2024-01-15T11:32:47.844Z,5.80
2024-01-15T11:35:51.797Z,5.80
2024-01-15T11:38:39.148Z,5.90
2024-01-15T11:41:29.727Z,5.80
2024-01-15T11:44:17.420Z,5.80
2024-01-15T11:47:14.562Z,5.80
2024-01-15T11:50:07.681Z,5.70
2024-01-15T11:53:06.550Z,5.80
2024-01-15T11:55:59.652Z,5.80
2024-01-15T11:58:47.082Z,5.80
2024-01-15T12:01:38.080Z,5.60
2024-01-15T12:04:46.518Z,5.50
2024-01-15T12:07:33.974Z,5.50
2024-01-15T12:10:22.522Z,5.80
2024-01-15T12:13:16.906Z,6.00
2024-01-15T12:16:05.721Z,6.00
2024-01-15T12:18:53.648Z,6.10
2024-01-15T12:21:41.388Z,6.10
2024-01-15T12:24:28.721Z,6.00
2024-01-15T12:27:16.425Z,6.00
2024-01-15T12:30:04.127Z,5.90
2024-01-15T12:32:51.716Z,5.90
2024-01-15T12:35:39.097Z,5.90
2024-01-15T12:38:26.749Z,5.90
2024-01-15T12:41:16.450Z,5.90
2024-01-15T12:44:05.354Z,5.90
2024-01-15T12:46:52.967Z,5.90
2024-01-15T12:49:43.160Z,6.00
2024-01-15T12:52:33.812Z,6.00
2024-01-15T12:55:21.193Z,6.00
2024-01-15T12:58:08.371Z,5.90
2024-01-15T13:00:55.866Z,5.90
2024-01-15T13:03:43.291Z,5.90
2024-01-15T13:06:30.733Z,5.90
2024-01-15T13:09:18.996Z,6.00
2024-01-15T13:12:07.031Z,6.00
2024-01-15T13:14:54.385Z,6.00
2024-01-15T13:17:42.612Z,6.00
2024-01-15T13:20:30.415Z,5.90
2024-01-15T13:23:17.956Z,5.90
2024-01-15T13:26:06.353Z,5.80
2024-01-15T13:28:54.722Z,5.70
2024-01-15T13:31:42.554Z,5.60
2024-01-15T13:34:30.340Z,5.50
2024-01-15T13:37:18.346Z,5.40
2024-01-15T13:40:09.329Z,5.30
2024-01-15T13:42:56.898Z,5.20
2024-01-15T13:45:44.924Z,5.10
2024-01-15T13:48:33.119Z,5.10
2024-01-15T13:51:23.729Z,5.10
2024-01-15T13:54:11.132Z,5.00
2024-01-15T13:57:04.490Z,5.00
2024-01-15T14:00:34.936Z,5.00
2024-01-15T14:03:24.789Z,4.90
2024-01-15T14:06:15.272Z,4.90
2024-01-15T14:09:06.132Z,4.90
2024-01-15T14:11:55.479Z,4.90
2024-01-15T14:14:42.717Z,4.80
2024-01-15T14:17:31.578Z,4.80
2024-01-15T14:20:22.478Z,4.80
2024-01-15T14:23:10.494Z,4.70
2024-01-15T14:25:58.106Z,4.60
2024-01-15T14:28:49.694Z,4.60
2024-01-15T14:31:38.950Z,4.50
2024-01-15T14:34:27.453Z,4.40
2024-01-15T14:37:14.965Z,4.40
2024-01-15T14:40:02.542Z,4.30
2024-01-15T14:42:50.154Z,4.30
2024-01-15T14:45:37.715Z,4.20
2024-01-15T14:48:25.197Z,4.10
2024-01-15T14:51:12.686Z,4.00
2024-01-15T14:54:00.086Z,3.90
2024-01-15T14:56:47.410Z,3.80
2024-01-15T14:59:34.814Z,3.80
2024-01-15T15:02:22.410Z,3.70
2024-01-15T15:05:12.049Z,3.70
2024-01-15T15:07:59.521Z,3.60
2024-01-15T15:10:46.914Z,3.60
2024-01-15T15:13:42.299Z,3.50
2024-01-15T15:16:33.353Z,3.50
2024-01-15T15:19:20.982Z,3.50
2024-01-15T15:22:12.292Z,3.40
2024-01-15T15:25:01.201Z,3.40
2024-01-15T15:27:49.150Z,3.30
2024-01-15T15:30:36.624Z,3.30
2024-01-15T15:33:24.375Z,3.30
2024-01-15T15:36:11.852Z,3.30
2024-01-15T15:38:59.879Z,3.30
2024-01-15T15:41:47.230Z,3.30
2024-01-15T15:44:34.470Z,3.30
2024-01-15T15:47:22.940Z,3.30
2024-01-15T15:50:11.006Z,3.30
2024-01-15T15:52:58.414Z,3.40
2024-01-15T15:55:45.867Z,3.40
2024-01-15T15:58:33.681Z,3.40
2024-01-15T16:01:21.276Z,3.40
2024-01-15T16:04:08.850Z,3.40
2024-01-15T16:06:56.271Z,3.40
2024-01-15T16:09:43.885Z,3.40
2024-01-15T16:12:31.457Z,3.40
2024-01-15T16:15:21.555Z,3.40
2024-01-15T16:23:19.035Z,3.30
2024-01-15T16:23:35.824Z,3.30
2024-01-15T16:24:33.853Z,3.30
2024-01-15T16:27:29.954Z,3.30
2024-01-15T16:30:25.856Z,3.30
2024-01-15T16:33:20.492Z,3.30
2024-01-15T16:36:07.825Z,3.30
2024-01-15T16:38:55.210Z,3.30
2024-01-15T16:41:42.626Z,3.30
2024-01-15T16:44:31.767Z,3.30
2024-01-15T16:47:19.202Z,3.30
2024-01-15T16:50:06.755Z,3.20
2024-01-15T16:52:54.056Z,3.20
2024-01-15T16:55:41.651Z,3.10
2024-01-15T16:58:38.030Z,3.10
2024-01-15T17:01:30.567Z,3.10
2024-01-15T17:04:18.081Z,3.00
2024-01-15T17:07:14.733Z,3.00
2024-01-15T17:10:13.868Z,3.00
2024-01-15T17:13:03.518Z,2.90
2024-01-15T17:15:50.858Z,2.90
2024-01-15T17:18:38.691Z,2.80
2024-01-15T17:21:26.321Z,2.80
2024-01-15T17:24:14.317Z,2.80
2024-01-15T17:27:04.104Z,2.70
2024-01-15T17:29:53.249Z,2.70
2024-01-15T17:32:40.738Z,2.70
2024-01-15T17:35:28.216Z,2.70
2024-01-15T17:38:17.043Z,2.70
2024-01-15T17:41:04.468Z,2.70
2024-01-15T17:43:51.888Z,2.80
2024-01-15T17:46:40.395Z,2.80
2024-01-15T17:49:28.290Z,2.80
2024-01-15T17:52:15.973Z,2.80
2024-01-15T17:55:04.173Z,2.90
2024-01-15T17:57:52.400Z,2.90
2024-01-15T18:00:39.704Z,2.90
2024-01-15T18:03:29.793Z,2.90
2024-01-15T18:06:18.832Z,2.90
2024-01-15T18:09:09.751Z,2.80
2024-01-15T18:12:00.241Z,2.80
2024-01-15T18:14:47.653Z,2.80
2024-01-15T18:17:36.486Z,2.70
2024-01-15T18:20:23.982Z,2.70
2024-01-15T18:23:11.427Z,2.70
2024-01-15T18:25:58.798Z,2.70
2024-01-15T18:28:46.198Z,2.70
2024-01-15T18:31:33.450Z,2.60
2024-01-15T18:34:24.988Z,2.60
2024-01-15T18:37:12.360Z,2.60
2024-01-15T18:40:00.075Z,2.60
2024-01-15T18:42:47.348Z,2.50
2024-01-15T18:46:02.934Z,2.50
2024-01-15T18:48:50.311Z,2.50
2024-01-15T18:51:37.718Z,2.50
2024-01-15T18:54:25.262Z,2.50
2024-01-15T18:57:12.679Z,2.50
2024-01-15T19:00:01.469Z,2.40
2024-01-15T19:02:49.041Z,2.40
2024-01-15T19:05:40.275Z,2.40
2024-01-15T19:08:28.090Z,2.40
2024-01-15T19:11:16.654Z,2.40
2024-01-15T19:14:04.820Z,2.40
2024-01-15T19:16:53.863Z,2.40
2024-01-15T19:19:41.354Z,2.30
2024-01-15T19:22:28.705Z,2.30
2024-01-15T19:25:16.086Z,2.30
2024-01-15T19:28:07.457Z,2.30
2024-01-15T19:30:55.388Z,2.30
2024-01-15T19:33:44.047Z,2.30
2024-01-15T19:36:32.805Z,2.30
2024-01-15T19:39:25.806Z,2.30
2024-01-15T19:42:15.497Z,2.30
2024-01-15T19:45:02.773Z,2.30
2024-01-15T19:47:50.209Z,2.30
2024-01-15T19:50:37.511Z,2.20
2024-01-15T19:53:25.027Z,2.20
2024-01-15T19:56:19.876Z,2.20
2024-01-15T19:59:07.301Z,2.20
2024-01-15T20:01:54.657Z,2.20
2024-01-15T20:04:42.040Z,2.20
2024-01-15T20:07:29.334Z,2.20
2024-01-15T20:10:16.714Z,2.20
2024-01-15T20:13:04.196Z,2.20
2024-01-15T20:16:49.583Z,2.20
2024-01-15T20:19:36.946Z,2.20
2024-01-15T20:22:27.528Z,2.20
2024-01-15T20:25:15.193Z,2.20
2024-01-15T20:28:02.773Z,2.20
2024-01-15T20:30:52.017Z,2.20
2024-01-15T20:33:56.210Z,2.10
2024-01-15T20:36:43.950Z,2.10
2024-01-15T20:39:31.443Z,2.10
2024-01-15T20:42:19.070Z,2.10
2024-01-15T20:45:07.049Z,2.10
2024-01-15T20:47:55.505Z,2.20
2024-01-15T20:50:43.258Z,2.20
2024-01-15T20:53:30.715Z,2.20
2024-01-15T20:56:18.128Z,2.30
2024-01-15T20:59:05.456Z,2.40
2024-01-15T21:01:52.879Z,2.40
2024-01-15T21:04:40.212Z,2.50
2024-01-15T21:07:29.160Z,2.50
2024-01-15T21:10:16.742Z,2.50
2024-01-15T21:13:05.455Z,2.50
2024-01-15T21:15:53.312Z,2.50
2024-01-15T21:18:42.015Z,2.50
2024-01-15T21:21:30.803Z,2.50
2024-01-15T21:24:18.839Z,2.50
2024-01-15T21:27:06.158Z,2.40
2024-01-15T21:29:54.182Z,2.40
2024-01-15T21:32:42.573Z,2.40
2024-01-15T21:35:32.705Z,2.40
2024-01-15T21:38:22.284Z,2.30
2024-01-15T21:41:09.868Z,2.30
2024-01-15T21:43:57.469Z,2.30
2024-01-15T21:46:47.971Z,2.30
2024-01-15T21:49:37.402Z,2.30
2024-01-15T21:52:34.925Z,2.30
2024-01-15T21:55:22.175Z,2.30
2024-01-15T21:58:13.871Z,2.30
2024-01-15T22:01:04.070Z,2.30
2024-01-15T22:03:53.879Z,2.30
2024-01-15T22:06:41.245Z,2.30
2024-01-15T22:09:28.534Z,2.20
2024-01-15T22:12:16.508Z,2.30
2024-01-15T22:15:04.199Z,2.30
2024-01-15T22:17:51.591Z,2.30
2024-01-15T22:20:41.129Z,2.30
2024-01-15T22:23:28.872Z,2.40
2024-01-15T22:26:16.355Z,2.40
2024-01-15T22:29:03.997Z,2.40
2024-01-15T22:31:51.261Z,2.40
2024-01-15T22:34:38.830Z,2.40
2024-01-15T22:37:26.220Z,2.40
2024-01-15T22:40:15.180Z,2.30
2024-01-15T22:43:02.508Z,2.30
2024-01-15T22:45:49.953Z,2.30
2024-01-15T22:48:38.168Z,2.30
2024-01-15T22:51:25.597Z,2.20
2024-01-15T22:54:12.930Z,2.20
2024-01-15T22:57:00.258Z,2.20
2024-01-15T22:59:47.923Z,2.20
2024-01-15T23:02:35.333Z,2.20
2024-01-15T23:05:22.705Z,2.20
2024-01-15T23:08:10.038Z,2.30
2024-01-15T23:10:57.398Z,2.20
2024-01-15T23:13:44.853Z,2.20
2024-01-15T23:16:32.178Z,2.20
2024-01-15T23:19:19.538Z,2.20
2024-01-15T23:22:07.490Z,2.20
2024-01-15T23:24:54.792Z,2.20
2024-01-15T23:27:42.602Z,2.10
2024-01-15T23:30:29.979Z,2.20
2024-01-15T23:33:38.991Z,2.20
2024-01-15T23:36:26.768Z,2.20
2024-01-15T23:39:14.414Z,2.30
2024-01-15T23:42:01.737Z,2.30
2024-01-15T23:44:50.869Z,2.30
2024-01-15T23:47:38.474Z,2.30
2024-01-15T23:50:25.845Z,2.30
2024-01-15T23:53:13.621Z,2.30
2024-01-15T23:56:01.048Z,2.30
2024-01-15T23:58:48.417Z,2.30
